Time;durP1;ratioP1;P1;durP2;ratioP2;P2;SDS_P1;SDS_P2;PMS_P1;PMS_P2;Temp;Humidity;BMP_temperature;BMP_pressure;BME280_temperature;BME280_humidity;BME280_pressure;Samples;Min_cycle;Max_cycle;Signal;HPM_P1;HPM_P2
2023/05/29 00:00:21;;;;;;;;;;;;;;;13.80;69.16;102266.13;4947441;28;19922;-62
2023/05/29 00:02:47;;;;;;;;;;;;;;;13.76;69.28;102264.78;4950841;28;20391;-62
2023/05/29 00:05:13;;;;;;;;;;;;;;;13.73;69.41;102270.44;4950111;28;19994;-62
2023/05/29 00:07:38;;;;;;;;;;;;;;;13.69;69.41;102270.91;4947377;28;19961;-62
2023/05/29 00:10:04;;;;;;;;;;;;;;;13.66;69.12;102273.88;4949978;28;19972;-62
2023/05/29 00:12:29;;;;;;;;;;;;;;;13.64;68.99;102277.53;4949354;28;19958;-62
2023/05/29 00:14:54;;;;;;;;;;;;;;;13.61;69.16;102287.69;4950259;28;20002;-61
2023/05/29 00:17:20;;;;;;;;;;;;;;;13.55;69.62;102281.13;4950532;28;19925;-61
2023/05/29 00:19:45;;;;;;;;;;;;;;;13.50;69.38;102282.59;4950193;28;19987;-62
2023/05/29 00:22:11;;;;;;;;;;;;;;;13.43;69.08;102284.19;4951061;28;20351;-61
2023/05/29 00:24:36;;;;;;;;;;;;;;;13.41;69.06;102280.84;4941271;28;20393;-62
2023/05/29 00:27:01;;;;;;;;;;;;;;;13.38;69.14;102294.50;4951983;28;19915;-62
2023/05/29 00:29:27;;;;;;;;;;;;;;;13.35;68.93;102289.47;4931731;29;20029;-62
2023/05/29 00:31:53;;;;;;;;;;;;;;;13.30;68.85;102290.78;4950830;28;20511;-62
2023/05/29 00:34:18;;;;;;;;;;;;;;;13.26;68.44;102289.38;4945573;28;19965;-62
2023/05/29 00:36:44;;;;;;;;;;;;;;;13.20;68.27;102290.00;4943212;28;20384;-62
2023/05/29 00:39:10;;;;;;;;;;;;;;;13.16;68.26;102299.25;4946508;28;19918;-62
2023/05/29 00:41:35;;;;;;;;;;;;;;;13.11;68.38;102303.38;4949515;28;20468;-62
2023/05/29 00:44:00;;;;;;;;;;;;;;;13.06;68.16;102297.66;4945074;28;19919;-62
2023/05/29 00:46:26;;;;;;;;;;;;;;;13.00;68.03;102304.41;4947846;28;19930;-62
2023/05/29 00:48:51;;;;;;;;;;;;;;;12.96;67.54;102300.38;4950036;28;19927;-61
2023/05/29 00:51:16;;;;;;;;;;;;;;;12.92;67.54;102305.19;4947120;28;19922;-62
2023/05/29 00:53:43;;;;;;;;;;;;;;;12.90;67.53;102311.66;4948631;28;19922;-62
2023/05/29 00:56:09;;;;;;;;;;;;;;;12.86;67.96;102310.28;4950327;28;19919;-62
2023/05/29 00:58:35;;;;;;;;;;;;;;;12.83;67.97;102315.91;4950027;28;20082;-62
2023/05/29 01:01:00;;;;;;;;;;;;;;;12.79;67.61;102318.03;4946312;28;20040;-62
2023/05/29 01:03:25;;;;;;;;;;;;;;;12.73;67.86;102317.78;4948685;28;20346;-62
2023/05/29 01:05:52;;;;;;;;;;;;;;;12.67;68.03;102320.03;4943734;28;19929;-62
2023/05/29 01:08:17;;;;;;;;;;;;;;;12.63;68.00;102323.16;4945761;28;19923;-62
2023/05/29 01:10:42;;;;;;;;;;;;;;;12.60;68.04;102331.44;4944980;28;20316;-62
2023/05/29 01:13:13;;;;;;;;;;;;;;;12.53;68.27;102315.22;4944682;28;19966;-61
2023/05/29 01:15:46;;;;;;;;;;;;;;;12.49;68.00;102323.66;4943565;28;19921;-62
2023/05/29 01:18:31;;;;;;;;;;;;;;;12.45;68.36;102323.13;4944815;28;19915;-60
2023/05/29 01:21:11;;;;;;;;;;;;;;;12.41;68.46;102325.19;4942547;28;19919;-62
2023/05/29 01:23:49;;;;;;;;;;;;;;;12.37;68.45;102322.97;4947722;28;20344;-62
2023/05/29 01:26:14;;;;;;;;;;;;;;;12.34;68.19;102317.94;4944057;28;20715;-62
2023/05/29 01:28:45;;;;;;;;;;;;;;;12.30;68.40;102327.22;4944641;28;20362;-62
2023/05/29 01:31:12;;;;;;;;;;;;;;;12.26;68.21;102329.34;4946598;28;19923;-62
2023/05/29 01:33:40;;;;;;;;;;;;;;;12.22;68.34;102329.78;4947072;28;20327;-61
2023/05/29 01:36:07;;;;;;;;;;;;;;;12.17;68.55;102324.06;4948195;28;19925;-61
2023/05/29 01:38:33;;;;;;;;;;;;;;;12.13;68.40;102322.63;4946495;28;19950;-62
2023/05/29 01:40:58;;;;;;;;;;;;;;;12.09;68.57;102325.59;4947105;28;20400;-61
2023/05/29 01:43:23;;;;;;;;;;;;;;;12.06;68.43;102320.56;4950236;28;20420;-62
2023/05/29 01:45:49;;;;;;;;;;;;;;;12.04;68.56;102319.03;4955299;28;20516;-62
2023/05/29 01:48:14;;;;;;;;;;;;;;;12.03;68.88;102314.69;4949780;28;19958;-62
2023/05/29 01:50:40;;;;;;;;;;;;;;;12.00;68.76;102320.28;4947781;28;20347;-62
2023/05/29 01:53:05;;;;;;;;;;;;;;;11.98;68.69;102322.25;4945108;28;19922;-62
2023/05/29 01:55:30;;;;;;;;;;;;;;;11.94;68.91;102319.06;4949256;28;19945;-61
2023/05/29 01:57:56;;;;;;;;;;;;;;;11.92;68.83;102331.66;4942330;28;19985;-62
2023/05/29 02:00:21;;;;;;;;;;;;;;;11.90;68.73;102327.47;4946610;28;19918;-62
2023/05/29 02:02:46;;;;;;;;;;;;;;;11.87;68.54;102315.28;4950750;28;19989;-61
2023/05/29 02:05:11;;;;;;;;;;;;;;;11.87;68.79;102317.94;4946139;28;19926;-62
2023/05/29 02:07:38;;;;;;;;;;;;;;;11.84;68.30;102318.22;4948677;28;19949;-62
2023/05/29 02:10:06;;;;;;;;;;;;;;;11.83;68.63;102318.34;4949287;28;20061;-62
2023/05/29 02:12:31;;;;;;;;;;;;;;;11.81;68.30;102323.81;4949358;28;20344;-62
2023/05/29 02:14:56;;;;;;;;;;;;;;;11.80;68.46;102322.13;4952453;28;19922;-61
2023/05/29 02:17:22;;;;;;;;;;;;;;;11.76;68.51;102321.56;4946542;28;20005;-62
2023/05/29 02:19:47;;;;;;;;;;;;;;;11.74;68.22;102328.84;4951292;28;20418;-62
2023/05/29 02:22:12;;;;;;;;;;;;;;;11.71;68.54;102320.31;4943416;28;19922;-62
2023/05/29 02:24:37;;;;;;;;;;;;;;;11.68;68.49;102323.25;4945979;28;19973;-62
2023/05/29 02:27:03;;;;;;;;;;;;;;;11.65;68.32;102323.53;4943664;28;19927;-61
2023/05/29 02:29:28;;;;;;;;;;;;;;;11.64;68.64;102327.19;4943936;28;19919;-62
2023/05/29 02:31:53;;;;;;;;;;;;;;;11.62;68.63;102342.47;4943143;28;19922;-61
2023/05/29 02:34:18;;;;;;;;;;;;;;;11.61;68.56;102340.78;4951291;28;19914;-62
2023/05/29 02:36:44;;;;;;;;;;;;;;;11.59;68.56;102335.59;4938929;28;20535;-62
2023/05/29 02:39:09;;;;;;;;;;;;;;;11.55;68.82;102338.66;4945851;28;19922;-62
2023/05/29 02:41:34;;;;;;;;;;;;;;;11.53;68.53;102348.59;4947380;28;19926;-62
2023/05/29 02:43:59;;;;;;;;;;;;;;;11.52;68.88;102350.41;4945490;28;19926;-62
2023/05/29 02:46:24;;;;;;;;;;;;;;;11.48;68.93;102344.53;4948671;28;19914;-61
2023/05/29 02:48:50;;;;;;;;;;;;;;;11.48;68.80;102349.03;4947235;28;20418;-62
2023/05/29 02:51:15;;;;;;;;;;;;;;;11.47;69.18;102347.34;4947678;28;19919;-61
2023/05/29 02:53:40;;;;;;;;;;;;;;;11.45;69.26;102344.81;4943001;28;20310;-62
2023/05/29 02:56:07;;;;;;;;;;;;;;;11.42;69.41;102339.78;4944801;28;19945;-62
2023/05/29 02:58:32;;;;;;;;;;;;;;;11.38;69.80;102346.38;4945126;28;19950;-62
2023/05/29 03:00:58;;;;;;;;;;;;;;;11.34;69.94;102339.66;4943228;28;19958;-62
2023/05/29 03:03:23;;;;;;;;;;;;;;;11.31;70.34;102349.72;4947388;28;19922;-61
2023/05/29 03:05:48;;;;;;;;;;;;;;;11.27;70.11;102342.97;4948818;28;20384;-62
2023/05/29 03:08:13;;;;;;;;;;;;;;;11.23;70.08;102339.75;4944150;28;19931;-61
2023/05/29 03:10:39;;;;;;;;;;;;;;;11.21;70.52;102336.38;4941366;28;20273;-62
2023/05/29 03:13:04;;;;;;;;;;;;;;;11.19;70.89;102341.00;4947141;28;19929;-61
2023/05/29 03:15:30;;;;;;;;;;;;;;;11.16;70.84;102338.63;4948589;28;20391;-61
2023/05/29 03:17:55;;;;;;;;;;;;;;;11.14;71.17;102336.09;4945689;28;19914;-61
2023/05/29 03:20:20;;;;;;;;;;;;;;;11.12;70.98;102338.06;4949744;28;19914;-62
2023/05/29 03:22:45;;;;;;;;;;;;;;;11.11;71.29;102343.53;4942589;28;19915;-62
2023/05/29 03:25:10;;;;;;;;;;;;;;;11.08;71.38;102341.16;4942192;28;19914;-62
2023/05/29 03:27:36;;;;;;;;;;;;;;;11.06;71.45;102343.09;4940462;28;20006;-61
2023/05/29 03:30:01;;;;;;;;;;;;;;;11.05;71.49;102344.91;4945070;28;19922;-62
2023/05/29 03:32:26;;;;;;;;;;;;;;;11.04;71.58;102348.56;4938114;28;19914;-61
2023/05/29 03:34:51;;;;;;;;;;;;;;;11.01;71.94;102361.28;4948169;28;19923;-62
2023/05/29 03:37:17;;;;;;;;;;;;;;;10.98;72.20;102356.22;4950634;28;20013;-61
2023/05/29 03:39:42;;;;;;;;;;;;;;;10.95;72.39;102352.00;4948585;28;19915;-61
2023/05/29 03:42:07;;;;;;;;;;;;;;;10.94;72.44;102352.16;4952818;28;20719;-61
2023/05/29 03:44:32;;;;;;;;;;;;;;;10.91;72.40;102347.94;4944590;28;20006;-62
2023/05/29 03:46:57;;;;;;;;;;;;;;;10.90;72.60;102353.41;4952680;28;19915;-62
2023/05/29 03:49:22;;;;;;;;;;;;;;;10.90;72.63;102350.75;4945810;28;20006;-61
2023/05/29 03:51:49;;;;;;;;;;;;;;;10.89;72.34;102363.19;4946654;28;19915;-62
2023/05/29 03:54:14;;;;;;;;;;;;;;;10.84;72.69;102355.63;4947592;28;19998;-61
2023/05/29 03:56:39;;;;;;;;;;;;;;;10.84;72.69;102360.09;4947926;28;20057;-61
2023/05/29 03:59:04;;;;;;;;;;;;;;;10.83;72.90;102367.22;4951262;28;20300;-61
2023/05/29 04:01:29;;;;;;;;;;;;;;;10.84;72.86;102366.25;4946359;28;19994;-62
2023/05/29 04:03:55;;;;;;;;;;;;;;;10.83;72.76;102375.22;4956848;28;20001;-61
2023/05/29 04:06:21;;;;;;;;;;;;;;;10.84;72.77;102370.72;4951853;28;19937;-61
2023/05/29 04:08:46;;;;;;;;;;;;;;;10.81;73.21;102374.50;4947382;28;19944;-61
2023/05/29 04:11:12;;;;;;;;;;;;;;;10.79;73.24;102381.78;4951282;28;20392;-60
2023/05/29 04:13:37;;;;;;;;;;;;;;;10.79;73.14;102378.28;4947909;28;19919;-62
2023/05/29 04:16:02;;;;;;;;;;;;;;;10.78;73.43;102387.22;4948851;28;19918;-62
2023/05/29 04:18:28;;;;;;;;;;;;;;;10.75;73.43;102383.00;4947665;28;20422;-62
2023/05/29 04:20:53;;;;;;;;;;;;;;;10.74;73.55;102380.50;4948389;28;20273;-62
2023/05/29 04:23:19;;;;;;;;;;;;;;;10.74;73.63;102383.16;4953561;28;19914;-61
2023/05/29 04:25:44;;;;;;;;;;;;;;;10.74;73.71;102386.66;4953809;28;19918;-61
2023/05/29 04:28:10;;;;;;;;;;;;;;;10.75;73.85;102383.00;4944268;28;19928;-61
2023/05/29 04:30:35;;;;;;;;;;;;;;;10.74;73.67;102385.81;4945699;28;20013;-62
2023/05/29 04:33:01;;;;;;;;;;;;;;;10.75;73.57;102383.00;4952544;28;20006;-61
2023/05/29 04:35:28;;;;;;;;;;;;;;;10.74;73.36;102380.50;4950952;28;20016;-62
2023/05/29 04:37:53;;;;;;;;;;;;;;;10.73;73.46;102389.44;4953928;28;19974;-62
2023/05/29 04:40:20;;;;;;;;;;;;;;;10.71;73.49;102384.25;4945499;28;20001;-62
2023/05/29 04:42:46;;;;;;;;;;;;;;;10.72;73.75;102396.56;4949630;28;19918;-61
2023/05/29 04:45:11;;;;;;;;;;;;;;;10.75;73.63;102395.47;4946378;28;19914;-61
2023/05/29 04:47:43;;;;;;;;;;;;;;;10.76;73.52;102395.31;4947813;28;20388;-62
2023/05/29 04:50:11;;;;;;;;;;;;;;;10.77;73.85;102391.69;4945762;28;20285;-62
2023/05/29 04:52:37;;;;;;;;;;;;;;;10.81;73.66;102397.56;4948610;28;19915;-61
2023/05/29 04:55:02;;;;;;;;;;;;;;;10.81;73.54;102392.25;4943949;28;20560;-61
2023/05/29 04:57:27;;;;;;;;;;;;;;;10.81;73.84;102385.13;4944424;28;19914;-61
2023/05/29 04:59:53;;;;;;;;;;;;;;;10.84;73.47;102381.38;4946039;28;19958;-61
2023/05/29 05:02:18;;;;;;;;;;;;;;;10.89;73.56;102383.63;4946994;28;19982;-62
2023/05/29 05:04:45;;;;;;;;;;;;;;;10.89;73.81;102397.75;4947041;28;19962;-61
2023/05/29 05:07:10;;;;;;;;;;;;;;;10.93;73.70;102400.97;4947967;28;19918;-62
2023/05/29 05:09:35;;;;;;;;;;;;;;;10.97;73.50;102402.38;4951075;28;19940;-62
2023/05/29 05:12:01;;;;;;;;;;;;;;;10.99;73.58;102406.63;4948257;28;19923;-62
2023/05/29 05:14:26;;;;;;;;;;;;;;;11.02;73.41;102411.66;4955630;28;19925;-62
2023/05/29 05:16:51;;;;;;;;;;;;;;;11.05;73.32;102415.84;4948634;28;20380;-61
2023/05/29 05:19:17;;;;;;;;;;;;;;;11.08;73.02;102426.22;4945388;28;19930;-62
2023/05/29 05:21:42;;;;;;;;;;;;;;;11.11;73.23;102433.91;4945099;28;19926;-61
2023/05/29 05:24:07;;;;;;;;;;;;;;;11.15;73.05;102425.53;4949127;28;19918;-62
2023/05/29 05:26:32;;;;;;;;;;;;;;;11.22;73.17;102428.50;4948111;28;19925;-61
2023/05/29 05:28:57;;;;;;;;;;;;;;;11.27;73.36;102434.22;4946413;28;20013;-61
2023/05/29 05:31:23;;;;;;;;;;;;;;;11.32;72.59;102432.03;4951737;28;20417;-61
2023/05/29 05:33:48;;;;;;;;;;;;;;;11.37;72.89;102437.78;4947359;28;19915;-61
2023/05/29 05:36:13;;;;;;;;;;;;;;;11.40;72.49;102432.19;4949357;28;19947;-61
2023/05/29 05:38:39;;;;;;;;;;;;;;;11.43;72.49;102429.25;4945283;28;19949;-62
2023/05/29 05:41:04;;;;;;;;;;;;;;;11.46;72.46;102426.31;4944917;28;19918;-61
2023/05/29 05:43:29;;;;;;;;;;;;;;;11.47;71.81;102433.31;4947544;28;19938;-62
2023/05/29 05:45:55;;;;;;;;;;;;;;;11.46;71.58;102426.31;4944080;28;19914;-62
2023/05/29 05:48:20;;;;;;;;;;;;;;;11.48;71.26;102429.66;4946737;28;19919;-61
2023/05/29 05:50:45;;;;;;;;;;;;;;;11.48;71.28;102429.66;4950477;28;19993;-62
2023/05/29 05:53:10;;;;;;;;;;;;;;;11.53;71.66;102423.94;4946554;28;19922;-62
2023/05/29 05:55:35;;;;;;;;;;;;;;;11.59;71.57;102414.56;4950621;28;20371;-61
2023/05/29 05:58:01;;;;;;;;;;;;;;;11.59;71.14;102423.41;4948724;28;20028;-62
2023/05/29 06:00:26;;;;;;;;;;;;;;;11.60;70.96;102424.25;4944641;28;20380;-61
2023/05/29 06:02:52;;;;;;;;;;;;;;;11.63;70.71;102418.63;4949695;28;20041;-62
2023/05/29 06:05:17;;;;;;;;;;;;;;;11.63;70.71;102427.47;4946385;28;20288;-61
2023/05/29 06:07:42;;;;;;;;;;;;;;;11.63;70.59;102422.13;4948693;28;20018;-62
2023/05/29 06:10:08;;;;;;;;;;;;;;;11.65;70.45;102428.16;4940954;28;20021;-62
2023/05/29 06:12:33;;;;;;;;;;;;;;;11.66;70.31;102431.66;4946579;28;19918;-61
2023/05/29 06:14:58;;;;;;;;;;;;;;;11.67;70.25;102430.69;4947828;28;19925;-62
2023/05/29 06:17:25;;;;;;;;;;;;;;;11.69;69.65;102437.53;4945483;28;19969;-62
2023/05/29 06:19:50;;;;;;;;;;;;;;;11.70;69.75;102433.91;4946985;28;20418;-61
2023/05/29 06:22:15;;;;;;;;;;;;;;;11.72;69.69;102442.59;4950684;28;19957;-62
2023/05/29 06:24:40;;;;;;;;;;;;;;;11.76;69.65;102451.13;4942383;28;19926;-65
2023/05/29 06:27:06;;;;;;;;;;;;;;;11.80;69.90;102449.91;4945034;28;19925;-62
2023/05/29 06:29:32;;;;;;;;;;;;;;;11.86;69.62;102454.69;4947077;28;19919;-61
2023/05/29 06:31:57;;;;;;;;;;;;;;;11.88;69.45;102458.06;4942831;28;19998;-61
2023/05/29 06:34:22;;;;;;;;;;;;;;;11.94;69.73;102452.16;4939113;28;19974;-60
2023/05/29 06:36:47;;;;;;;;;;;;;;;12.00;68.98;102453.44;4948892;28;19919;-61
2023/05/29 06:39:13;;;;;;;;;;;;;;;12.05;68.95;102449.34;4947008;28;20017;-61
2023/05/29 06:41:38;;;;;;;;;;;;;;;12.13;68.66;102453.13;4950739;28;19969;-61
2023/05/29 06:44:03;;;;;;;;;;;;;;;12.15;68.42;102449.38;4941147;28;20046;-61
2023/05/29 06:46:29;;;;;;;;;;;;;;;12.20;68.46;102448.94;4943702;28;19923;-62
2023/05/29 06:48:54;;;;;;;;;;;;;;;12.26;68.32;102446.53;4947566;28;19932;-61
2023/05/29 06:51:19;;;;;;;;;;;;;;;12.30;67.63;102455.94;4944947;28;19966;-61
2023/05/29 06:53:44;;;;;;;;;;;;;;;12.30;67.04;102452.41;4939657;28;19922;-61
2023/05/29 06:56:10;;;;;;;;;;;;;;;12.31;67.00;102451.44;4943259;28;19925;-61
2023/05/29 06:58:35;;;;;;;;;;;;;;;12.33;66.87;102458.31;4946610;28;20459;-61
2023/05/29 07:01:00;;;;;;;;;;;;;;;12.40;67.14;102453.22;4944393;28;20009;-62
2023/05/29 07:03:26;;;;;;;;;;;;;;;12.48;66.89;102455.22;4948014;28;20411;-62
2023/05/29 07:05:51;;;;;;;;;;;;;;;12.54;66.77;102451.97;4947040;28;19918;-62
2023/05/29 07:08:16;;;;;;;;;;;;;;;12.60;66.19;102451.38;4947120;28;20303;-62
2023/05/29 07:10:42;;;;;;;;;;;;;;;12.65;65.97;102455.28;4952617;28;19933;-61
2023/05/29 07:13:07;;;;;;;;;;;;;;;12.71;65.49;102445.88;4948498;28;19923;-61
2023/05/29 07:15:33;;;;;;;;;;;;;;;12.76;65.21;102453.44;4953790;28;20378;-60
2023/05/29 07:17:58;;;;;;;;;;;;;;;12.82;64.93;102455.53;4948377;28;19925;-61
2023/05/29 07:20:23;;;;;;;;;;;;;;;12.89;64.47;102456.63;4950093;28;19922;-62
2023/05/29 07:22:48;;;;;;;;;;;;;;;12.96;64.99;102457.72;4946952;28;19922;-62
2023/05/29 07:25:14;;;;;;;;;;;;;;;13.03;64.24;102456.16;4945066;28;19981;-61
2023/05/29 07:27:39;;;;;;;;;;;;;;;13.07;64.08;102462.03;4944188;28;19914;-62
2023/05/29 07:30:05;;;;;;;;;;;;;;;13.11;63.49;102463.41;4947269;28;19923;-61
2023/05/29 07:32:31;;;;;;;;;;;;;;;13.14;63.27;102458.63;4951220;28;20005;-61
2023/05/29 07:34:56;;;;;;;;;;;;;;;13.19;63.39;102472.38;4947158;28;19918;-62
2023/05/29 07:37:21;;;;;;;;;;;;;;;13.25;63.15;102469.13;4948414;28;19915;-61
2023/05/29 07:39:46;;;;;;;;;;;;;;;13.30;63.01;102468.69;4949990;28;19919;-61
2023/05/29 07:42:11;;;;;;;;;;;;;;;13.33;62.61;102471.91;4951424;28;19922;-61
2023/05/29 07:44:36;;;;;;;;;;;;;;;13.40;62.64;102477.47;4951870;28;20013;-62
2023/05/29 07:47:02;;;;;;;;;;;;;;;13.47;62.23;102472.38;4951557;28;19922;-62
2023/05/29 07:49:27;;;;;;;;;;;;;;;13.53;61.87;102479.78;4950398;28;19922;-61
2023/05/29 07:51:52;;;;;;;;;;;;;;;13.58;61.96;102473.00;4946445;28;19926;-61
2023/05/29 07:54:20;;;;;;;;;;;;;;;13.66;61.79;102477.59;4950362;28;19969;-61
2023/05/29 07:56:45;;;;;;;;;;;;;;;13.73;61.85;102475.16;4945022;28;19929;-61
2023/05/29 07:59:10;;;;;;;;;;;;;;;13.81;61.65;102470.75;4951002;28;19918;-62
2023/05/29 08:01:37;;;;;;;;;;;;;;;13.90;61.21;102477.03;4952973;28;20421;-60
2023/05/29 08:04:02;;;;;;;;;;;;;;;13.95;60.98;102478.25;4949578;28;20463;-61
2023/05/29 08:06:27;;;;;;;;;;;;;;;14.02;60.27;102480.28;4949127;28;19922;-62
2023/05/29 08:08:52;;;;;;;;;;;;;;;14.04;59.78;102484.50;4951079;28;19969;-61
2023/05/29 08:11:18;;;;;;;;;;;;;;;14.07;59.54;102475.31;4950297;28;19914;-62
2023/05/29 08:13:43;;;;;;;;;;;;;;;14.13;59.27;102482.72;4950810;28;20412;-61
2023/05/29 08:16:08;;;;;;;;;;;;;;;14.19;59.12;102490.16;4952621;28;19918;-61
2023/05/29 08:18:33;;;;;;;;;;;;;;;14.27;59.57;102484.88;4944485;28;19919;-62
2023/05/29 08:20:58;;;;;;;;;;;;;;;14.38;59.26;102487.28;4947276;28;19957;-61
2023/05/29 08:23:24;;;;;;;;;;;;;;;14.49;58.87;102492.44;4949187;28;20372;-62
2023/05/29 08:25:49;;;;;;;;;;;;;;;14.58;58.61;102493.31;4948134;28;19928;-62
2023/05/29 08:28:14;;;;;;;;;;;;;;;14.66;57.75;102489.84;4947808;28;19927;-61
2023/05/29 08:30:40;;;;;;;;;;;;;;;14.74;58.01;102488.06;4946113;28;20404;-62
2023/05/29 08:33:05;;;;;;;;;;;;;;;14.83;57.57;102481.78;4951103;28;19918;-62
2023/05/29 08:35:30;;;;;;;;;;;;;;;14.90;57.35;102486.50;4952777;28;19921;-61
2023/05/29 08:37:55;;;;;;;;;;;;;;;14.99;57.21;102490.88;4948451;28;19930;-61
2023/05/29 08:40:21;;;;;;;;;;;;;;;15.08;56.90;102488.13;4946728;28;19926;-61
2023/05/29 08:42:47;;;;;;;;;;;;;;;15.24;56.89;102492.69;4950583;28;19921;-60
2023/05/29 08:45:13;;;;;;;;;;;;;;;15.37;56.63;102492.25;4941601;28;19919;-61
2023/05/29 08:47:40;;;;;;;;;;;;;;;15.51;55.83;102486.25;4948584;28;19919;-61
2023/05/29 08:50:05;;;;;;;;;;;;;;;15.64;55.57;102497.41;4945999;28;19929;-61
2023/05/29 08:52:35;;;;;;;;;;;;;;;15.76;55.30;102505.94;4951870;28;19914;-61
2023/05/29 08:55:00;;;;;;;;;;;;;;;15.87;55.37;102502.13;4944309;28;20017;-62
2023/05/29 08:57:28;;;;;;;;;;;;;;;15.99;55.19;102509.69;4950076;28;20017;-62
2023/05/29 08:59:53;;;;;;;;;;;;;;;16.12;54.40;102506.50;4951016;28;20535;-62
2023/05/29 09:02:19;;;;;;;;;;;;;;;16.19;53.82;102501.31;4942310;28;19926;-62
2023/05/29 09:04:45;;;;;;;;;;;;;;;16.26;53.53;102502.34;4945931;28;19926;-62
2023/05/29 09:07:11;;;;;;;;;;;;;;;16.32;53.51;102502.50;4947245;28;19918;-62
2023/05/29 09:09:37;;;;;;;;;;;;;;;16.46;53.89;102503.66;4941515;28;19925;-62
2023/05/29 09:12:03;;;;;;;;;;;;;;;16.60;52.78;102502.16;4947133;28;19914;-62
2023/05/29 09:14:39;;;;;;;;;;;;;;;16.67;52.45;102503.19;4949276;28;19922;-62
2023/05/29 09:17:05;;;;;;;;;;;;;;;16.72;51.90;102507.00;4939215;28;19981;-62
2023/05/29 09:19:30;;;;;;;;;;;;;;;16.78;52.59;102494.78;4948014;28;19914;-62
2023/05/29 09:22:07;;;;;;;;;;;;;;;16.84;52.24;102494.09;4943169;28;20415;-62
2023/05/29 09:24:33;;;;;;;;;;;;;;;16.90;51.95;102500.63;4945685;28;19918;-62
2023/05/29 09:26:59;;;;;;;;;;;;;;;16.95;52.26;102495.56;4943573;28;19938;-62
2023/05/29 09:29:24;;;;;;;;;;;;;;;17.00;51.95;102496.72;4949769;28;19926;-62
2023/05/29 09:31:50;;;;;;;;;;;;;;;17.11;52.14;102492.84;4944836;28;19919;-62
2023/05/29 09:34:15;;;;;;;;;;;;;;;17.24;52.30;102497.66;4947837;28;19981;-62
2023/05/29 09:36:41;;;;;;;;;;;;;;;17.43;51.94;102501.78;4944926;28;19918;-62
2023/05/29 09:39:09;;;;;;;;;;;;;;;17.60;51.66;102498.81;4945742;28;19919;-62
2023/05/29 09:41:40;;;;;;;;;;;;;;;17.75;51.35;102492.75;4948004;28;20485;-62
2023/05/29 09:44:07;;;;;;;;;;;;;;;17.87;51.22;102485.91;4947741;28;20315;-62
2023/05/29 09:46:36;;;;;;;;;;;;;;;17.99;50.77;102492.56;4947008;28;20822;-62
2023/05/29 09:49:02;;;;;;;;;;;;;;;18.10;50.08;102489.47;4940659;28;19930;-62
2023/05/29 09:51:27;;;;;;;;;;;;;;;18.11;49.43;102491.13;4950080;28;19918;-62
2023/05/29 09:53:53;;;;;;;;;;;;;;;18.14;49.49;102490.75;4951141;28;20017;-62
2023/05/29 09:56:21;;;;;;;;;;;;;;;18.22;49.52;102498.78;4940335;28;19921;-62
2023/05/29 09:58:47;;;;;;;;;;;;;;;18.25;49.02;102492.22;4947964;28;20403;-61
2023/05/29 10:01:13;;;;;;;;;;;;;;;18.41;49.00;102491.22;4942624;28;19946;-62
2023/05/29 10:03:38;;;;;;;;;;;;;;;18.50;48.61;102498.19;4949631;28;19953;-62
2023/05/29 10:06:05;;;;;;;;;;;;;;;18.56;47.94;102490.25;4941961;28;19918;-62
2023/05/29 10:08:31;;;;;;;;;;;;;;;18.58;48.17;102492.75;4948471;28;19958;-61
2023/05/29 10:10:59;;;;;;;;;;;;;;;18.64;48.41;102493.91;4947375;28;19957;-62
2023/05/29 10:13:26;;;;;;;;;;;;;;;18.75;48.04;102490.75;4945552;28;19964;-62
2023/05/29 10:15:52;;;;;;;;;;;;;;;18.88;48.02;102485.56;4948616;28;19919;-62
2023/05/29 10:18:36;;;;;;;;;;;;;;;19.00;47.58;102485.94;4949035;28;19918;-62
2023/05/29 10:21:02;;;;;;;;;;;;;;;19.05;47.06;102487.03;4942165;28;19937;-62
2023/05/29 10:23:28;;;;;;;;;;;;;;;19.13;47.21;102481.59;4941171;28;20380;-62
2023/05/29 10:25:59;;;;;;;;;;;;;;;19.29;47.96;102480.53;4943409;28;20418;-62
2023/05/29 10:28:24;;;;;;;;;;;;;;;19.44;47.23;102486.75;4945010;28;19922;-61
2023/05/29 10:30:53;;;;;;;;;;;;;;;19.52;46.83;102469.63;4941994;28;19914;-62
2023/05/29 10:33:27;;;;;;;;;;;;;;;19.59;46.81;102475.09;4942612;28;19919;-62
2023/05/29 10:35:53;;;;;;;;;;;;;;;19.71;46.81;102474.44;4941395;28;19943;-62
2023/05/29 10:38:19;;;;;;;;;;;;;;;19.85;46.61;102470.00;4943997;28;19925;-62
2023/05/29 10:40:44;;;;;;;;;;;;;;;19.94;45.89;102466.13;4947279;28;19969;-62
2023/05/29 10:43:30;;;;;;;;;;;;;;;20.02;45.51;102468.72;4947343;28;20380;-62
2023/05/29 10:45:55;;;;;;;;;;;;;;;20.07;45.58;102468.97;4943028;28;19923;-62
2023/05/29 10:48:28;;;;;;;;;;;;;;;20.08;45.47;102467.13;4930445;29;19973;-62
2023/05/29 10:50:54;;;;;;;;;;;;;;;20.07;45.80;102462.75;4947193;28;19926;-62
2023/05/29 10:53:23;;;;;;;;;;;;;;;20.02;45.54;102474.13;4948809;28;20491;-62
2023/05/29 10:55:50;;;;;;;;;;;;;;;20.00;45.21;102475.34;4944339;28;19914;-62
2023/05/29 10:58:18;;;;;;;;;;;;;;;19.97;44.53;102468.47;4943407;28;20296;-62
2023/05/29 11:00:46;;;;;;;;;;;;;;;19.97;44.91;102473.88;4944337;28;19915;-62
2023/05/29 11:03:14;;;;;;;;;;;;;;;20.01;45.05;102468.91;4948722;28;19927;-62
2023/05/29 11:05:58;;;;;;;;;;;;;;;20.01;45.43;102461.66;4940988;28;19915;-62
2023/05/29 11:08:33;;;;;;;;;;;;;;;20.00;44.91;102460.00;4942908;28;19930;-62
2023/05/29 11:10:58;;;;;;;;;;;;;;;20.04;44.83;102463.13;4939787;28;19915;-62
2023/05/29 11:13:33;;;;;;;;;;;;;;;20.08;45.67;102467.13;4948507;28;19922;-62
2023/05/29 11:16:06;;;;;;;;;;;;;;;20.18;45.42;102453.28;4944632;28;20321;-62
2023/05/29 11:18:31;;;;;;;;;;;;;;;20.28;44.49;102459.19;4938221;28;19918;-62
2023/05/29 11:20:59;;;;;;;;;;;;;;;20.38;44.83;102449.72;4950732;28;19919;-62
2023/05/29 11:23:29;;;;;;;;;;;;;;;20.41;44.36;102460.16;4944288;28;19922;-62
2023/05/29 11:25:54;;;;;;;;;;;;;;;20.44;44.58;102456.22;4943523;28;20197;-62
2023/05/29 11:28:19;;;;;;;;;;;;;;;20.52;43.78;102455.22;4944109;28;20561;-62
2023/05/29 11:30:46;;;;;;;;;;;;;;;20.52;43.63;102460.63;4941492;28;19926;-62
2023/05/29 11:33:16;;;;;;;;;;;;;;;20.47;44.03;102460.41;4944436;28;19985;-62
2023/05/29 11:35:41;;;;;;;;;;;;;;;20.48;43.89;102454.81;4944984;28;20009;-61
2023/05/29 11:38:06;;;;;;;;;;;;;;;20.56;44.55;102446.56;4944271;28;20053;-62
2023/05/29 11:40:35;;;;;;;;;;;;;;;20.66;44.53;102443.50;4946066;28;19925;-61
2023/05/29 11:43:00;;;;;;;;;;;;;;;20.72;44.04;102448.94;4941954;28;19918;-62
2023/05/29 11:45:25;;;;;;;;;;;;;;;20.82;44.07;102445.06;4947557;28;19925;-62
2023/05/29 11:47:51;;;;;;;;;;;;;;;20.93;44.45;102447.19;4942282;28;19922;-62
2023/05/29 11:50:20;;;;;;;;;;;;;;;21.03;44.27;102442.25;4943120;28;20025;-62
2023/05/29 11:52:46;;;;;;;;;;;;;;;21.06;44.24;102447.25;4946564;28;19986;-62
2023/05/29 11:55:11;;;;;;;;;;;;;;;21.09;43.40;102440.59;4946752;28;19918;-62
2023/05/29 11:57:36;;;;;;;;;;;;;;;21.06;43.27;102447.25;4942998;28;19918;-62
2023/05/29 12:00:07;;;;;;;;;;;;;;;20.92;43.07;102440.13;4951030;28;19918;-62
2023/05/29 12:02:33;;;;;;;;;;;;;;;20.88;42.35;102442.41;4950065;28;19985;-62
2023/05/29 12:05:02;;;;;;;;;;;;;;;20.88;42.29;102439.69;4950955;28;19922;-62
2023/05/29 12:07:27;;;;;;;;;;;;;;;20.93;42.62;102442.63;4944263;28;19925;-63
2023/05/29 12:09:57;;;;;;;;;;;;;;;20.96;41.87;102444.94;4950113;28;19930;-62
2023/05/29 12:12:22;;;;;;;;;;;;;;;21.03;41.26;102444.94;4947690;28;19922;-63
2023/05/29 12:14:49;;;;;;;;;;;;;;;21.10;40.76;102443.09;4952928;29;19922;-62
2023/05/29 12:17:15;;;;;;;;;;;;;;;21.14;39.76;102441.69;4948554;28;20534;-62
2023/05/29 12:19:40;;;;;;;;;;;;;;;21.16;39.17;102453.13;4949961;28;19914;-62
2023/05/29 12:22:05;;;;;;;;;;;;;;;21.15;38.92;102451.47;4951389;28;19946;-62
2023/05/29 12:24:31;;;;;;;;;;;;;;;21.15;38.19;102446.06;4943876;28;19914;-62
2023/05/29 12:26:57;;;;;;;;;;;;;;;21.14;37.97;102440.88;4946187;28;20029;-62
2023/05/29 12:29:29;;;;;;;;;;;;;;;21.14;37.67;102447.09;4944735;28;19922;-62